Aubrey, TX

8:18 PM CST on February 19, 2017 (GMT -0600)
Aubrey US HWY 377 & Blackjack | | Change Station

Elev 699 ft 33.31 °N, 96.97 °W | Updated 1 second ago

Mostly Cloudy
Mostly Cloudy
70.8 °F
Feels Like 70.8 °F
N
8.7
Wind Variable Wind from SE
Gusts 8.7 mph

Today
High -- | Low -- °F
--% Chance of Precip.
Yesterday
High -- | Low -- °F
Precip. -- in
Pressure 29.78 in
Visibility 10.0 miles
Clouds Few 2000 ft
Dew Point 68 °F
Humidity 89%
Rainfall 0.00 in
Snow Depth Not available.
7:07 AM 6:16 PM
Last Quarter, 38% visible
METAR KDTO 200153Z 13015KT 10SM FEW020 21/18 A2980 RMK AO2 SLP085 T02110183
Pressure 29.78 in
Visibility 10.0 miles
Clouds Few 2000 ft
Dew Point 68 °F
Humidity 89%
Rainfall 0.00 in
Snow Depth Not available.
7:07 AM 6:16 PM
Last Quarter, 38% visible
METAR KDTO 200153Z 13015KT 10SM FEW020 21/18 A2980 RMK AO2 SLP085 T02110183

Get Your Daily Forecast Email!

Thanks for signing up!

Be on the lookout for a verification email in your inbox.

You'll start receiving the daily forecast at 8 AM.

×

10-Day Weather Forecast

Almanac

Astronomy

Feb. 19, 2017 Rise Set
Actual Time
Civil Twilight
Nautical Twilight
Astronomical Twilight
Moon
Length of Visible Light
Length of Day
Tomorrow will be .
, % of the Moon is Illuminated

Today's Extremes

State Highs State Lows

Community

WunderPhotos

Upload Photos

1,962,540 photos uploaded!

WunderBlog® & News

Nearby

Air Quality

  Air Quality AQ Index Pollutant
Not available.

Snow Depth

Station Depth Elevation

Earthquake Activity

City Distance Mag. Time & Date
Minimum magnitude displayed is 2.5.

Coastal Water Temperatures

Place Temperature

Stations

Nearby Weather Stations

Station Location Temp. Windchill Dew Point Humidity Wind Precip. Elev Updated Type
                   

Watches & Warnings

There are currently no watches in effect.